Home > Products > Valid Products > MTR

000
SAUS43 KBIS 302354
MTRN60
METAR KN60 302352Z AUTO 09011G18KT 11/11 A2948 RMK AO1 SLP988 60001
T01110106 10111 20106 56021





000
SAUS43 KBIS 302254
MTRN60
METAR KN60 302252Z AUTO 09013G20KT 11/10 A2950 RMK AO1 SLP994
T01060100





000
SAUS43 KBIS 302153
MTRN60
METAR KN60 302152Z AUTO 10014G21KT 11/10 A2953 RMK AO1 SLP003
T01110100





000
SAUS43 KBIS 302053
MTRN60
METAR KN60 302052Z AUTO 10012G19KT 11/10 A2955 RMK AO1 SLP010 60001
T01110100 56029





000
SAUS43 KBIS 301954
MTRN60
METAR KN60 301952Z AUTO 11011KT 11/10 A2958 RMK AO1 SLP021 P0001
T01060100





000
SAUS43 KBIS 301853
MTRN60
METAR KN60 301852Z AUTO 10011KT 11/10 A2961 RMK AO1 SLP031 T01060100





000
SAUS43 KBIS 301754
MTRN60
METAR KN60 301752Z AUTO 11011KT 11/10 A2964 RMK AO1 SLP042 P0007
60007 T01060100 10117 20106 56021





000
SAUS43 KBIS 301654
MTRN60
METAR KN60 301652Z AUTO 10014KT 11/10 A2965 RMK AO1 SLP046 T01060100





000
SAUS43 KBIS 301553
MTRN60
METAR KN60 301552Z AUTO 10014G19KT 11/10 A2967 RMK AO1 SLP052
T01110100





000
SAUS43 KBIS 301454
MTRN60
METAR KN60 301452Z AUTO 12012KT 11/10 A2971 RMK AO1 SLP064 T01110100
58014





000
SAUS43 KBIS 301354
MTRN60
METAR KN60 301352Z AUTO 12011KT 12/11 A2973 RMK AO1 SLP072 T01170106





000
SAUS43 KBIS 301253
MTRN60
METAR KN60 301252Z AUTO 13009KT 12/11 A2975 RMK AO1 SLP078 T01170106





000
SAUS43 KBIS 301154
MTRN60
METAR KN60 301152Z AUTO 11010KT 11/11 A2975 RMK AO1 SLP079 60004
70004 T01110106 10117 20111 58024





000
SAUS43 KBIS 301053
MTRN60
METAR KN60 301052Z AUTO 12009KT 11/10 A2978 RMK AO1 SLP088 T01110100





000
SAUS43 KBIS 300953
MTRN60
METAR KN60 300952Z AUTO 12010G17KT 12/11 A2980 RMK AO1 SLP097 P0001
T01170106





000
SAUS43 KBIS 300853
MTRN60
METAR KN60 300852Z AUTO 12009KT 12/10 A2983 RMK AO1 SLP105 P0002
60003 T01170100 56024





000
SAUS43 KBIS 300754
MTRN60
METAR KN60 300752Z AUTO 12010KT 11/10 A2985 RMK AO1 SLP114 P0001
T01110100





000
SAUS43 KBIS 300654
MTRN60
METAR KN60 300652Z AUTO 12011KT 12/09 A2987 RMK AO1 SLP122 T01170094





000
SAUS43 KBIS 300553
MTRN60
METAR KN60 300552Z AUTO 12009KT 12/09 A2990 RMK AO1 SLP132 T01170094
10122 20117 401280061 58018





000
SAUS43 KBIS 300453
MTRN60
METAR KN60 300452Z AUTO 13011G21KT 12/09 A2994 RMK AO1 SLP145
T01170089





000
SAUS43 KBIS 300353
MTRN60
METAR KN60 300352Z AUTO 13015G21KT 12/09 A2995 RMK AO1 SLP151
T01170089





000
SAUS43 KBIS 300253
MTRN60
METAR KN60 300252Z AUTO 12014G19KT 12/09 A2996 RMK AO1 SLP154
T01220089 58015





000
SAUS43 KBIS 300154
MTRN60
METAR KN60 300152Z AUTO 12011G16KT 12/09 A2998 RMK AO1 SLP161
T01220089





000
SAUS43 KBIS 300054
MTRN60
METAR KN60 300052Z AUTO 11012KT 12/09 A3000 RMK AO1 SLP166 T01220089





000
SAUS43 KBIS 292353
MTRN60
METAR KN60 292352Z AUTO 11011KT 12/09 A3000 RMK AO1 SLP169 T01220089
10128 20089 56024





000
SAUS43 KBIS 292254
MTRN60
METAR KN60 292252Z AUTO 11010KT 13/09 A3003 RMK AO1 SLP176 T01280089





000
SAUS43 KBIS 292153
MTRN60
METAR KN60 292152Z AUTO 09009G17KT 12/08 A3004 RMK AO1 SLP182
T01170083





000
SAUS43 KBIS 292053
MTRN60
METAR KN60 292052Z AUTO 10010KT 11/08 A3008 RMK AO1 SLP196 T01110078
56025





000
SAUS43 KBIS 291954
MTRN60
METAR KN60 291952Z AUTO 12012KT 11/07 A3010 RMK AO1 SLP203 T01060072





000
SAUS43 KBIS 291854
MTRN60
METAR KN60 291852Z AUTO 11009G18KT 09/07 A3013 RMK AO1 SLP216
T00940067





000
SAUS43 KBIS 291753
MTRN60
METAR KN60 291752Z AUTO 10007KT 09/06 A3016 RMK AO1 SLP223 T00890061
10094 20061 58011





000
SAUS43 KBIS 291653
MTRN60
METAR KN60 291652Z AUTO 08008KT 08/06 A3017 RMK AO1 SLP229 T00830056





000
SAUS43 KBIS 291553
MTRN60
METAR KN60 291552Z AUTO 09009G17KT 07/04 A3019 RMK AO1 SLP235
T00720044





000
SAUS43 KBIS 291453
MTRN60
METAR KN60 291452Z AUTO 07009KT 07/04 A3019 RMK AO1 SLP237 T00670044
58013





000
SAUS43 KBIS 291353
MTRN60
METAR KN60 291352Z AUTO 09010KT 06/04 A3021 RMK AO1 SLP243 T00610044





000
SAUS43 KBIS 291253
MTRN60
METAR KN60 291252Z AUTO 07008KT 06/04 A3023 RMK AO1 SLP250 T00610044





000
SAUS43 KBIS 291153
MTRN60
METAR KN60 291152Z AUTO 09008KT 06/05 A3024 RMK AO1 SLP252 70022
T00610050 10083 20061 55004





000
SAUS43 KBIS 291054
MTRN60
METAR KN60 291052Z AUTO 08010KT 06/04 A3023 RMK AO1 SLP249 T00610044





000
SAUS43 KBIS 290953
MTRN60
METAR KN60 290952Z AUTO 08009KT 07/06 A3023 RMK AO1 SLP250 T00670056





000
SAUS43 KBIS 290853
MTRN60
METAR KN60 290852Z AUTO 07006KT 07/06 A3025 RMK AO1 SLP255 T00670056
58012





000
SAUS43 KBIS 290754
MTRN60
METAR KN60 290752Z AUTO 06007KT 07/05 A3027 RMK AO1 SLP262 T00720050





000
SAUS43 KBIS 290654
MTRN60
METAR KN60 290652Z AUTO 06006KT 07/05 A3028 RMK AO1 SLP265 T00720050





000
SAUS43 KBIS 290554
MTRN60
METAR KN60 290552Z AUTO 05007KT 08/06 A3028 RMK AO1 SLP266 60002
T00830056 10089 20078 401390078 58005





000
SAUS43 KBIS 290453
MTRN60
METAR KN60 290452Z AUTO 06009KT 08/06 A3029 RMK AO1 SLP268 T00830061





000
SAUS43 KBIS 290353
MTRN60
METAR KN60 290352Z AUTO 06006KT 08/06 A3030 RMK AO1 SLP272 T00830061





000
SAUS43 KBIS 290253
MTRN60
METAR KN60 290252Z AUTO 06008KT 08/07 A3030 RMK AO1 SLP271 60002
T00830067 50006





000
SAUS43 KBIS 290153
MTRN60
METAR KN60 290152Z AUTO 05007G16KT 08/07 A3030 RMK AO1 SLP272
T00830072





000
SAUS43 KBIS 290053
MTRN60
METAR KN60 290052Z AUTO 05008KT 08/07 A3029 RMK AO1 SLP267 P0002
T00830072





000
SAUS43 KBIS 282353
MTRN60
METAR KN60 282352Z AUTO 05010G16KT 08/07 A3028 RMK AO1 SLP264 P0004
60018 T00830072 10100 20083 53005





000
SAUS43 KBIS 282253
MTRN60
METAR KN60 282252Z AUTO 04007KT 09/08 A3027 RMK AO1 SLP259 P0007
T00940083





000
SAUS43 KBIS 282153
MTRN60
METAR KN60 282152Z AUTO 03010KT 09/08 A3027 RMK AO1 SLP257 P0002
T00940083





000
SAUS43 KBIS 282053
MTRN60
METAR KN60 282052Z AUTO 04008KT 09/08 A3026 RMK AO1 SLP256 60005
T00940083 58002





000
SAUS43 KBIS 281953
MTRN60
METAR KN60 281952Z AUTO 04010KT 10/08 A3028 RMK AO1 SLP259 T01000083





000
SAUS43 KBIS 281853
MTRN60
METAR KN60 281852Z AUTO 04009G15KT 10/08 A3027 RMK AO1 SLP256 P0005
T01000083





000
SAUS43 KBIS 281754
MTRN60
METAR KN60 281752Z AUTO 03012G18KT 09/08 A3027 RMK AO1 SLP257 P0001
60002 T00940078 10117 20094 52005





000
SAUS43 KBIS 281654
MTRN60
METAR KN60 281652Z AUTO 03012KT 09/08 A3027 RMK AO1 SLP255 P0001
T00940083





000
SAUS43 KBIS 281553
MTRN60
METAR KN60 281552Z AUTO 03010KT 09/08 A3026 RMK AO1 SLP253 T00940078





000
SAUS43 KBIS 281454
MTRN60
METAR KN60 281452Z AUTO 02012G18KT 10/07 A3025 RMK AO1 SLP250
T01000072 53016





000
SAUS43 KBIS 281353
MTRN60
METAR KN60 281352Z AUTO 02009G17KT 10/07 A3024 RMK AO1 SLP244
T01000072





000
SAUS43 KBIS 281253
MTRN60
METAR KN60 281252Z AUTO 03010G18KT 11/08 A3022 RMK AO1 SLP234
T01060078





000
SAUS43 KBIS 281153
MTRN60
METAR KN60 281152Z AUTO 03010KT 12/08 A3020 RMK AO1 SLP227 T01170083
10144 20117 52018





000
SAUS43 KBIS 281053
MTRN60
METAR KN60 281052Z AUTO 03011KT 12/08 A3018 RMK AO1 SLP218 T01170078





000
SAUS43 KBIS 280954
MTRN60
METAR KN60 280952Z AUTO 03012G21KT 13/08 A3017 RMK AO1 SLP215
T01280083





000
SAUS43 KBIS 280854
MTRN60
METAR KN60 280852Z AUTO 03015G21KT 13/08 A3015 RMK AO1 SLP206
T01280083 53013





000
SAUS43 KBIS 280753
MTRN60
METAR KN60 280752Z AUTO 03017G23KT 13/08 A3013 RMK AO1 PK WND
03027/0659 SLP201 T01280083





000
SAUS43 KBIS 280654
MTRN60
METAR KN60 280652Z AUTO 02015G22KT 13/09 A3012 RMK AO1 SLP195
T01330089





000
SAUS43 KBIS 280554
MTRN60
METAR KN60 280552Z AUTO 02014G24KT 14/09 A3011 RMK AO1 SLP192
T01440094 10211 20139 402390139 51016





000
SAUS43 KBIS 280453
MTRN60
METAR KN60 280452Z AUTO 02015G22KT 14/09 A3010 RMK AO1 SLP189
T01440094





000
SAUS43 KBIS 280353
MTRN60
METAR KN60 280352Z AUTO 02012G21KT 15/09 A3007 RMK AO1 SLP181
T01500094





000
SAUS43 KBIS 280253
MTRN60
METAR KN60 280252Z AUTO 02013G23KT 16/09 A3006 RMK AO1 SLP176
T01560094 51020





000
SAUS43 KBIS 280154
MTRN60
METAR KN60 280152Z AUTO 02016G26KT 17/09 A3004 RMK AO1 PK WND
02026/0152 SLP171 T01720094





000
SAUS43 KBIS 280054
MTRN60
METAR KN60 280052Z AUTO 03015G21KT 19/10 A3002 RMK AO1 SLP162
T01890100





    US Dept of Commerce
    National Oceanic and Atmospheric Administration
    National Weather Service
    1325 East West Highway
    Silver Spring, MD 20910
    Page Author: NWS Internet Services Team
Disclaimer
Information Quality
Credits
Glossary
Privacy Policy
Freedom of Information Act (FOIA)
About Us
Career Opportunities